ZSSAM FAGM-FAWM

Flight info

Callsign ZSSAM
Flight time 0h 48m
Altitude 24000
Route GAV W95 WMV
Aircraft SF50/L-SDGRWY/L

Departure

Time 2026-04-28 15:11
Airport Rand Airport (FAGM)

Arrival

Time 2026-04-28 16:00
Airport Welkom Airport (FAWM)
Time Latitude Longitude Altitude Speed Heading
2026-04-28 14:39 -26.24050 28.15228 5444 ft 0 kts 195°
2026-04-28 15:04 -26.24052 28.15227 5444 ft 1 kts 215°
2026-04-28 15:04 -26.24060 28.15220 5444 ft 6 kts 221°
2026-04-28 15:04 -26.24079 28.15179 5444 ft 6 kts 281°
2026-04-28 15:04 -26.24079 28.15139 5444 ft 5 kts 217°
2026-04-28 15:05 -26.24107 28.15148 5443 ft 4 kts 157°
2026-04-28 15:05 -26.24138 28.15162 5443 ft 6 kts 158°
2026-04-28 15:05 -26.24164 28.15196 5443 ft 7 kts 89°
2026-04-28 15:05 -26.24164 28.15256 5443 ft 8 kts 91°
2026-04-28 15:06 -26.24164 28.15322 5443 ft 9 kts 89°
2026-04-28 15:06 -26.24162 28.15397 5443 ft 10 kts 90°
2026-04-28 15:06 -26.24162 28.15479 5443 ft 10 kts 88°
2026-04-28 15:06 -26.24161 28.15556 5443 ft 9 kts 90°
2026-04-28 15:07 -26.24161 28.15623 5443 ft 8 kts 91°
2026-04-28 15:07 -26.24168 28.15681 5443 ft 7 kts 132°
2026-04-28 15:07 -26.24193 28.15707 5443 ft 0 kts 135°
2026-04-28 15:09 -26.24193 28.15708 5443 ft 1 kts 135°
2026-04-28 15:09 -26.24206 28.15722 5443 ft 8 kts 136°
2026-04-28 15:10 -26.24246 28.15729 5444 ft 4 kts 279°
2026-04-28 15:10 -26.24246 28.15723 5444 ft 0 kts 267°
2026-04-28 15:10 -26.24247 28.15706 5444 ft 14 kts 267°
2026-04-28 15:10 -26.24251 28.15410 5445 ft 61 kts 270°
2026-04-28 15:11 -26.24256 28.14793 5471 ft 96 kts 268°
2026-04-28 15:11 -26.24253 28.14060 5793 ft 94 kts 268°
2026-04-28 15:11 -26.24301 28.13273 6047 ft 100 kts 262°
2026-04-28 15:11 -26.24414 28.12587 6462 ft 94 kts 253°
2026-04-28 15:12 -26.24722 28.11905 6748 ft 94 kts 231°
2026-04-28 15:12 -26.25361 28.11633 6865 ft 122 kts 177°
2026-04-28 15:12 -26.26061 28.12293 7038 ft 142 kts 136°
2026-04-28 15:12 -26.26971 28.12796 7183 ft 154 kts 186°
2026-04-28 15:13 -26.27943 28.12310 7341 ft 165 kts 232°
2026-04-28 15:13 -26.28274 28.11131 7755 ft 163 kts 270°
2026-04-28 15:13 -26.28263 28.09863 8198 ft 162 kts 264°
2026-04-28 15:13 -26.28476 28.08624 8690 ft 160 kts 254°
2026-04-28 15:14 -26.28925 28.07508 9155 ft 159 kts 243°
2026-04-28 15:14 -26.29486 28.06470 9628 ft 156 kts 241°
2026-04-28 15:14 -26.30061 28.05452 10080 ft 154 kts 241°
2026-04-28 15:14 -26.30634 28.04443 10459 ft 154 kts 241°
2026-04-28 15:15 -26.31204 28.03440 10801 ft 155 kts 242°
2026-04-28 15:15 -26.31589 28.02764 11013 ft 155 kts 242°
2026-04-28 15:15 -26.32368 28.01394 11454 ft 158 kts 242°
2026-04-28 15:15 -26.32956 28.00362 11781 ft 159 kts 242°
2026-04-28 15:16 -26.33553 27.99314 12108 ft 160 kts 242°
2026-04-28 15:16 -26.34162 27.98243 12433 ft 162 kts 242°
2026-04-28 15:16 -26.34761 27.97191 12779 ft 162 kts 242°
2026-04-28 15:16 -26.35374 27.96111 13108 ft 164 kts 242°
2026-04-28 15:17 -26.35981 27.95040 13463 ft 165 kts 242°
2026-04-28 15:17 -26.36591 27.93968 13825 ft 164 kts 242°
2026-04-28 15:17 -26.37210 27.92875 14135 ft 167 kts 242°
2026-04-28 15:17 -26.37829 27.91781 14423 ft 168 kts 242°
2026-04-28 15:18 -26.38459 27.90672 14733 ft 168 kts 242°
2026-04-28 15:18 -26.39081 27.89576 15041 ft 169 kts 243°
2026-04-28 15:18 -26.39710 27.88464 15352 ft 169 kts 243°
2026-04-28 15:18 -26.40335 27.87364 15669 ft 169 kts 244°
2026-04-28 15:19 -26.40966 27.86248 15984 ft 170 kts 244°
2026-04-28 15:19 -26.41592 27.85143 16310 ft 169 kts 244°
2026-04-28 15:19 -26.42226 27.84021 16604 ft 170 kts 244°
2026-04-28 15:19 -26.42865 27.82895 16912 ft 171 kts 244°
2026-04-28 15:20 -26.43498 27.81778 17215 ft 172 kts 245°
2026-04-28 15:20 -26.44137 27.80652 17533 ft 173 kts 245°
2026-04-28 15:20 -26.44778 27.79520 17844 ft 173 kts 245°
2026-04-28 15:20 -26.45426 27.78376 18156 ft 174 kts 245°
2026-04-28 15:21 -26.46079 27.77225 18478 ft 174 kts 245°
2026-04-28 15:21 -26.46718 27.76094 18751 ft 174 kts 245°
2026-04-28 15:21 -26.47365 27.74951 19022 ft 175 kts 245°
2026-04-28 15:21 -26.48018 27.73800 19304 ft 175 kts 246°
2026-04-28 15:22 -26.48664 27.72656 19570 ft 175 kts 246°
2026-04-28 15:22 -26.49322 27.71494 19846 ft 175 kts 246°
2026-04-28 15:22 -26.49967 27.70351 20119 ft 176 kts 245°
2026-04-28 15:22 -26.50625 27.69187 20394 ft 176 kts 245°
2026-04-28 15:23 -26.51387 27.68102 20659 ft 182 kts 237°
2026-04-28 15:23 -26.52343 27.67130 20928 ft 188 kts 229°
2026-04-28 15:23 -26.53458 27.66327 21202 ft 194 kts 223°
2026-04-28 15:23 -26.54612 27.65557 21495 ft 192 kts 224°
2026-04-28 15:24 -26.55742 27.64789 21793 ft 191 kts 224°
2026-04-28 15:24 -26.56884 27.64019 22095 ft 190 kts 224°
2026-04-28 15:24 -26.58008 27.63261 22384 ft 189 kts 224°
2026-04-28 15:24 -26.59141 27.62499 22679 ft 188 kts 225°
2026-04-28 15:25 -26.60255 27.61748 22979 ft 188 kts 225°
2026-04-28 15:25 -26.61373 27.60997 23274 ft 187 kts 225°
2026-04-28 15:25 -26.62472 27.60254 23576 ft 185 kts 225°
2026-04-28 15:25 -26.63584 27.59504 23854 ft 185 kts 225°
2026-04-28 15:26 -26.64676 27.58767 24099 ft 184 kts 225°
2026-04-28 15:26 -26.65779 27.58017 24186 ft 192 kts 225°
2026-04-28 15:26 -26.66971 27.57206 24195 ft 204 kts 224°
2026-04-28 15:26 -26.68211 27.56373 24198 ft 214 kts 224°
2026-04-28 15:27 -26.69506 27.55501 24199 ft 222 kts 224°
2026-04-28 15:27 -26.70862 27.54588 24196 ft 230 kts 223°
2026-04-28 15:27 -26.72234 27.53664 24201 ft 235 kts 223°
2026-04-28 15:27 -26.73659 27.52704 24200 ft 240 kts 223°
2026-04-28 15:28 -26.75091 27.51737 24195 ft 244 kts 223°
2026-04-28 15:28 -26.76565 27.50754 24194 ft 250 kts 220°
2026-04-28 15:28 -26.78299 27.50193 24190 ft 272 kts 202°
2026-04-28 15:28 -26.80198 27.49980 24199 ft 277 kts 198°
2026-04-28 15:29 -26.81489 27.49877 24197 ft 278 kts 198°
2026-04-28 15:29 -26.84078 27.49683 24203 ft 281 kts 198°
2026-04-28 15:29 -26.85386 27.49586 24204 ft 282 kts 197°
2026-04-28 15:29 -26.87358 27.49441 24201 ft 283 kts 197°
2026-04-28 15:30 -26.89987 27.49246 24205 ft 285 kts 197°
2026-04-28 15:30 -26.91958 27.49099 24201 ft 286 kts 197°
2026-04-28 15:30 -26.93289 27.49000 24206 ft 287 kts 198°
2026-04-28 15:30 -26.95295 27.48852 24206 ft 287 kts 197°
2026-04-28 15:31 -26.97273 27.48705 24208 ft 287 kts 198°
2026-04-28 15:31 -26.99284 27.48556 24217 ft 287 kts 198°
2026-04-28 15:31 -27.01262 27.48409 24215 ft 287 kts 198°
2026-04-28 15:31 -27.03271 27.48259 24219 ft 287 kts 198°
2026-04-28 15:32 -27.05242 27.48112 24214 ft 286 kts 198°
2026-04-28 15:32 -27.07216 27.47965 24221 ft 286 kts 198°
2026-04-28 15:32 -27.09203 27.47816 24220 ft 286 kts 198°
2026-04-28 15:32 -27.11208 27.47664 24219 ft 286 kts 198°
2026-04-28 15:33 -27.13186 27.47515 24224 ft 286 kts 198°
2026-04-28 15:33 -27.15156 27.47366 24225 ft 286 kts 198°
2026-04-28 15:33 -27.17155 27.47215 24224 ft 286 kts 198°
2026-04-28 15:33 -27.19125 27.47067 24226 ft 286 kts 198°
2026-04-28 15:34 -27.21127 27.46916 24229 ft 286 kts 198°
2026-04-28 15:34 -27.23089 27.46768 24223 ft 284 kts 198°
2026-04-28 15:34 -27.25037 27.46630 23186 ft 282 kts 198°
2026-04-28 15:34 -27.27044 27.46468 21743 ft 291 kts 197°
2026-04-28 15:35 -27.29056 27.46311 20437 ft 293 kts 197°
2026-04-28 15:35 -27.33117 27.45988 18788 ft 274 kts 197°
2026-04-28 15:35 -27.34929 27.45785 18891 ft 255 kts 201°
2026-04-28 15:36 -27.36654 27.45411 19003 ft 248 kts 208°
2026-04-28 15:36 -27.38253 27.44814 19107 ft 242 kts 215°
2026-04-28 15:36 -27.39758 27.43995 19149 ft 237 kts 221°
2026-04-28 15:36 -27.41112 27.42996 19153 ft 231 kts 228°
2026-04-28 15:37 -27.42288 27.41780 19154 ft 225 kts 236°
2026-04-28 15:37 -27.43281 27.40457 19155 ft 222 kts 239°
2026-04-28 15:37 -27.44282 27.39108 19157 ft 223 kts 238°
2026-04-28 15:37 -27.45297 27.37803 19158 ft 223 kts 237°
2026-04-28 15:38 -27.46327 27.36482 19160 ft 223 kts 237°
2026-04-28 15:38 -27.47343 27.35172 19156 ft 224 kts 238°
2026-04-28 15:38 -27.48376 27.33840 19161 ft 224 kts 237°
2026-04-28 15:38 -27.49399 27.32516 19138 ft 226 kts 238°
2026-04-28 15:39 -27.50428 27.31190 18311 ft 224 kts 237°
2026-04-28 15:39 -27.51431 27.29904 18218 ft 212 kts 237°
2026-04-28 15:39 -27.52393 27.28654 18211 ft 214 kts 238°
2026-04-28 15:39 -27.53382 27.27367 18213 ft 219 kts 237°
2026-04-28 15:40 -27.54386 27.26072 18220 ft 221 kts 237°
2026-04-28 15:40 -27.55409 27.24751 18219 ft 222 kts 237°
2026-04-28 15:40 -27.56417 27.23449 18220 ft 222 kts 237°
2026-04-28 15:40 -27.57434 27.22133 18219 ft 221 kts 237°
2026-04-28 15:41 -27.58438 27.20832 18217 ft 221 kts 237°
2026-04-28 15:41 -27.59459 27.19510 18216 ft 221 kts 237°
2026-04-28 15:41 -27.60460 27.18214 18216 ft 221 kts 237°
2026-04-28 15:41 -27.61478 27.16895 18218 ft 221 kts 237°
2026-04-28 15:42 -27.62489 27.15586 18213 ft 222 kts 238°
2026-04-28 15:42 -27.63491 27.14288 18219 ft 221 kts 237°
2026-04-28 15:42 -27.64505 27.12975 18219 ft 221 kts 237°
2026-04-28 15:42 -27.65510 27.11672 18222 ft 221 kts 238°
2026-04-28 15:43 -27.66524 27.10357 18221 ft 221 kts 238°
2026-04-28 15:43 -27.67521 27.09065 18207 ft 218 kts 237°
2026-04-28 15:43 -27.68521 27.07766 18210 ft 219 kts 238°
2026-04-28 15:43 -27.69519 27.06468 18205 ft 220 kts 238°
2026-04-28 15:44 -27.70518 27.05172 18204 ft 221 kts 237°
2026-04-28 15:44 -27.71533 27.03855 18209 ft 221 kts 238°
2026-04-28 15:44 -27.72534 27.02554 18208 ft 221 kts 238°
2026-04-28 15:44 -27.73547 27.01238 18215 ft 220 kts 238°
2026-04-28 15:45 -27.74548 26.99936 18214 ft 220 kts 238°
2026-04-28 15:45 -27.75558 26.98620 18213 ft 220 kts 238°
2026-04-28 15:45 -27.76553 26.97325 18216 ft 220 kts 238°
2026-04-28 15:45 -27.77564 26.96009 18212 ft 220 kts 238°
2026-04-28 15:46 -27.78561 26.94710 18208 ft 221 kts 238°
2026-04-28 15:46 -27.79572 26.93396 18211 ft 221 kts 238°
2026-04-28 15:46 -27.80568 26.92096 18213 ft 220 kts 238°
2026-04-28 15:46 -27.81576 26.90781 18214 ft 220 kts 238°
2026-04-28 15:47 -27.82573 26.89481 18211 ft 220 kts 238°
2026-04-28 15:47 -27.83582 26.88164 18209 ft 220 kts 238°
2026-04-28 15:47 -27.84578 26.86866 18214 ft 220 kts 238°
2026-04-28 15:47 -27.85584 26.85553 18207 ft 220 kts 238°
2026-04-28 15:48 -27.86593 26.84234 18208 ft 220 kts 238°
2026-04-28 15:48 -27.87588 26.82937 18211 ft 220 kts 238°
2026-04-28 15:48 -27.88594 26.81623 18207 ft 220 kts 238°
2026-04-28 15:48 -27.89596 26.80315 18204 ft 220 kts 238°
2026-04-28 15:49 -27.90592 26.79015 18210 ft 220 kts 238°
2026-04-28 15:49 -27.91596 26.77700 18211 ft 220 kts 238°
2026-04-28 15:49 -27.92587 26.76406 18207 ft 220 kts 238°
2026-04-28 15:49 -27.93592 26.75091 18210 ft 220 kts 238°
2026-04-28 15:50 -27.94589 26.73788 18211 ft 220 kts 238°
2026-04-28 15:50 -27.95591 26.72476 18211 ft 220 kts 238°
2026-04-28 15:50 -27.96594 26.71164 18210 ft 220 kts 238°
2026-04-28 15:50 -27.97585 26.69866 18196 ft 219 kts 238°
2026-04-28 15:51 -27.98584 26.68561 18202 ft 218 kts 238°
2026-04-28 15:51 -27.99557 26.67287 17410 ft 215 kts 238°
2026-04-28 15:51 -28.00579 26.65929 15742 ft 235 kts 236°
2026-04-28 15:51 -28.01669 26.64496 14163 ft 249 kts 234°
2026-04-28 15:52 -28.02838 26.62975 12409 ft 258 kts 233°
2026-04-28 15:52 -28.04021 26.61438 10740 ft 261 kts 230°
2026-04-28 15:52 -28.05528 26.60270 9078 ft 270 kts 205°
2026-04-28 15:52 -28.07400 26.59973 7551 ft 274 kts 178°
2026-04-28 15:53 -28.09158 26.60661 6431 ft 266 kts 148°
2026-04-28 15:53 -28.10344 26.62150 5737 ft 246 kts 119°
2026-04-28 15:53 -28.10654 26.63942 5298 ft 228 kts 87°
2026-04-28 15:53 -28.10053 26.65548 5189 ft 221 kts 53°
2026-04-28 15:54 -28.09016 26.66841 5195 ft 220 kts 47°
2026-04-28 15:54 -28.07962 26.68104 5196 ft 224 kts 47°
2026-04-28 15:54 -28.06891 26.69398 5201 ft 226 kts 47°
2026-04-28 15:54 -28.05815 26.70704 5669 ft 223 kts 47°
2026-04-28 15:55 -28.04760 26.71979 6079 ft 225 kts 47°
2026-04-28 15:55 -28.03693 26.73274 6393 ft 230 kts 47°
2026-04-28 15:55 -28.02588 26.74620 6404 ft 231 kts 47°
2026-04-28 15:55 -28.01494 26.75952 6409 ft 229 kts 47°
2026-04-28 15:56 -28.00421 26.77262 6407 ft 227 kts 47°
2026-04-28 15:56 -27.99347 26.78581 6405 ft 226 kts 47°
2026-04-28 15:56 -27.98085 26.79589 6390 ft 226 kts 19°
2026-04-28 15:56 -27.96541 26.79662 6391 ft 223 kts 344°
2026-04-28 15:57 -27.95246 26.78755 6392 ft 219 kts 309°
2026-04-28 15:57 -27.94640 26.77236 6395 ft 211 kts 279°
2026-04-28 15:57 -27.94430 26.75643 6395 ft 193 kts 276°
2026-04-28 15:57 -27.94281 26.74246 6398 ft 168 kts 268°
2026-04-28 15:58 -27.94683 26.73093 6395 ft 160 kts 228°
2026-04-28 15:58 -27.95497 26.72213 6401 ft 160 kts 224°
2026-04-28 15:58 -27.96259 26.71377 6397 ft 144 kts 225°
2026-04-28 15:58 -27.96908 26.70664 6387 ft 114 kts 224°
2026-04-28 15:59 -27.97452 26.70040 5979 ft 114 kts 226°
2026-04-28 15:59 -27.97787 26.69567 5405 ft 121 kts 253°
2026-04-28 15:59 -27.98461 26.68589 4659 ft 105 kts 220°
2026-04-28 15:59 -27.98963 26.68090 4498 ft 91 kts 231°
2026-04-28 16:00 -27.99352 26.67545 4398 ft 82 kts 228°
2026-04-28 16:00 -27.99666 26.67135 4398 ft 47 kts 229°
2026-04-28 16:00 -27.99835 26.66914 4398 ft 12 kts 228°
2026-04-28 16:00 -27.99834 26.66843 4398 ft 11 kts 317°
2026-04-28 16:01 -27.99786 26.66797 4398 ft 8 kts 319°
2026-04-28 16:01 -27.99750 26.66762 4398 ft 6 kts 320°
2026-04-28 16:01 -27.99723 26.66736 4398 ft 5 kts 320°
2026-04-28 16:01 -27.99698 26.66711 4398 ft 5 kts 320°
2026-04-28 16:02 -27.99670 26.66684 4398 ft 6 kts 320°
2026-04-28 16:02 -27.99636 26.66679 4398 ft 6 kts 49°
2026-04-28 16:02 -27.99631 26.66686 4398 ft 0 kts 55°